Time;durP1;ratioP1;P1;durP2;ratioP2;P2;SDS_P1;SDS_P2;PMS_P1;PMS_P2;Temp;Humidity;BMP_temperature;BMP_pressure;BME280_temperature;BME280_humidity;BME280_pressure;Samples;Min_cycle;Max_cycle;Signal;HPM_P1;HPM_P2
2022/09/03 00:00:12;;;;;;;9.00;3.50;;;18.60;72.20;;;;;;5052490;28;20657;-61
2022/09/03 00:02:44;;;;;;;3.30;3.00;;;18.60;72.50;;;;;;5056914;28;20524;-61
2022/09/03 00:05:18;;;;;;;5.70;3.80;;;18.70;73.20;;;;;;5054134;28;20509;-61
2022/09/03 00:07:55;;;;;;;6.40;4.20;;;18.60;72.00;;;;;;5065169;28;20490;-61
2022/09/03 00:10:28;;;;;;;3.57;3.27;;;18.50;72.90;;;;;;5070019;28;21179;-62
2022/09/03 00:13:00;;;;;;;3.93;3.23;;;18.50;72.50;;;;;;5064818;28;20494;-61
2022/09/03 00:15:29;;;;;;;4.07;3.77;;;18.50;72.70;;;;;;5069027;28;20561;-61
2022/09/03 00:17:59;;;;;;;5.33;2.77;;;18.50;72.90;;;;;;5065525;28;20478;-61
2022/09/03 00:20:31;;;;;;;3.70;3.10;;;18.80;73.80;;;;;;5069414;28;20827;-61
2022/09/03 00:23:04;;;;;;;3.23;2.93;;;18.40;73.90;;;;;;5070431;28;20486;-61
2022/09/03 00:25:37;;;;;;;5.57;2.90;;;18.20;74.30;;;;;;5076537;28;20580;-61
2022/09/03 00:28:11;;;;;;;3.53;3.07;;;18.10;75.00;;;;;;5070122;28;20487;-61
2022/09/03 00:30:39;;;;;;;6.20;3.97;;;18.10;72.90;;;;;;5068279;28;20661;-61
2022/09/03 00:33:11;;;;;;;3.43;3.13;;;18.10;73.00;;;;;;5072335;28;20473;-61
2022/09/03 00:35:43;;;;;;;3.77;3.03;;;18.10;73.80;;;;;;5072224;28;20478;-61
2022/09/03 00:38:11;;;;;;;4.20;3.30;;;18.10;73.90;;;;;;5072694;28;20986;-61
2022/09/03 00:40:55;;;;;;;4.43;3.40;;;18.10;73.80;;;;;;5073506;28;20493;-61
2022/09/03 00:43:37;;;;;;;4.90;3.17;;;18.10;74.00;;;;;;5069674;28;20550;-61
2022/09/03 00:46:17;;;;;;;4.03;3.47;;;18.10;74.40;;;;;;5069247;28;20497;-62
2022/09/03 00:48:54;;;;;;;3.43;3.13;;;18.00;74.30;;;;;;5062227;28;20505;-61
2022/09/03 00:51:28;;;;;;;4.67;3.53;;;18.00;74.60;;;;;;5063962;28;21061;-61
2022/09/03 00:54:03;;;;;;;5.27;4.80;;;17.90;74.80;;;;;;5070185;28;20532;-61
2022/09/03 00:56:39;;;;;;;6.80;3.78;;;18.00;74.40;;;;;;5073204;28;20497;-61
2022/09/03 00:59:31;;;;;;;4.47;3.03;;;17.90;74.90;;;;;;5071998;28;20625;-61
2022/09/03 01:02:07;;;;;;;3.10;2.80;;;17.90;76.10;;;;;;5069796;28;20478;-61
2022/09/03 01:04:48;;;;;;;3.70;3.40;;;17.70;77.00;;;;;;5063721;28;20490;-61
2022/09/03 01:07:23;;;;;;;3.57;3.03;;;17.60;76.70;;;;;;5058401;28;20470;-61
2022/09/03 01:09:58;;;;;;;5.13;4.23;;;17.40;77.00;;;;;;5071293;28;20461;-61
2022/09/03 01:12:34;;;;;;;4.13;3.40;;;17.40;76.60;;;;;;5067877;28;20500;-61
2022/09/03 01:15:09;;;;;;;3.63;3.20;;;17.40;76.20;;;;;;5069197;28;20684;-61
2022/09/03 01:17:44;;;;;;;4.87;4.47;;;17.40;76.40;;;;;;5070648;28;20478;-62
2022/09/03 01:20:24;;;;;;;3.43;2.93;;;17.20;77.80;;;;;;5071406;28;20469;-61
2022/09/03 01:23:24;;;;;;;5.50;3.73;;;16.90;77.00;;;;;;5062117;28;20756;-61
2022/09/03 01:26:03;;;;;;;4.50;4.03;;;16.80;76.90;;;;;;5059083;28;20941;-61
2022/09/03 01:28:44;;;;;;;5.27;3.50;;;16.70;76.60;;;;;;5072603;28;20465;-61
2022/09/03 01:31:22;;;;;;;4.10;3.80;;;17.50;77.50;;;;;;5070805;28;20474;-61
2022/09/03 01:33:56;;;;;;;5.13;4.23;;;16.80;78.10;;;;;;5058956;28;21362;-61
2022/09/03 01:36:30;;;;;;;3.78;3.45;;;16.90;79.80;;;;;;5066988;28;20484;-61
2022/09/03 01:39:01;;;;;;;5.10;4.60;;;17.10;77.50;;;;;;5067316;28;20342;-61
2022/09/03 01:44:40;;;;;;;5.67;5.17;;;17.20;78.00;;;;;;5049093;28;20543;-61
2022/09/03 01:47:17;;;;;;;6.35;4.97;;;17.40;76.70;;;;;;5070444;28;20478;-61
2022/09/03 01:49:51;;;;;;;4.93;4.53;;;17.30;77.20;;;;;;5069748;28;20441;-61
2022/09/03 01:52:25;;;;;;;4.72;4.07;;;17.40;77.90;;;;;;5066365;28;20485;-61
2022/09/03 01:55:05;;;;;;;5.37;4.57;;;17.30;78.30;;;;;;5057500;28;20710;-61
2022/09/03 01:57:55;;;;;;;6.70;4.97;;;17.20;77.70;;;;;;5062176;28;20850;-61
2022/09/03 02:00:23;;;;;;;5.70;3.53;;;17.20;76.10;;;;;;5069322;28;20489;-61
2022/09/03 02:02:51;;;;;;;6.43;4.60;;;17.30;75.60;;;;;;5069230;28;20554;-61
2022/09/03 02:05:22;;;;;;;5.20;4.70;;;17.30;75.90;;;;;;5068088;28;20815;-61
2022/09/03 02:07:56;;;;;;;5.73;4.70;;;17.40;77.00;;;;;;5071471;28;20482;-61
2022/09/03 02:10:28;;;;;;;5.20;4.70;;;17.40;77.50;;;;;;5057657;28;21186;-61
2022/09/03 02:12:59;;;;;;;6.17;5.60;;;17.60;77.40;;;;;;5058688;28;21127;-60
2022/09/03 02:15:29;;;;;;;5.10;4.70;;;17.70;77.70;;;;;;5067429;28;20470;-61
2022/09/03 02:18:01;;;;;;;8.23;6.17;;;17.80;76.50;;;;;;5034694;28;20494;-61
2022/09/03 02:20:29;;;;;;;4.97;4.57;;;17.70;78.40;;;;;;5053241;28;21003;-61
2022/09/03 02:22:57;;;;;;;6.43;4.37;;;17.70;77.80;;;;;;5061441;28;20977;-60
2022/09/03 02:25:29;;;;;;;6.40;5.33;;;17.70;77.80;;;;;;5070468;28;20482;-61
2022/09/03 02:27:56;;;;;;;7.13;6.50;;;17.70;78.60;;;;;;5066798;28;20485;-62
2022/09/03 02:30:23;;;;;;;6.90;4.00;;;17.60;79.70;;;;;;5070899;28;20549;-61
2022/09/03 02:32:51;;;;;;;6.90;4.97;;;17.50;79.80;;;;;;5075303;28;20482;-62
2022/09/03 02:35:18;;;;;;;6.30;5.30;;;17.40;79.30;;;;;;5069487;28;20493;-62
2022/09/03 02:37:45;;;;;;;4.35;3.53;;;17.50;78.90;;;;;;5072057;28;20677;-61
2022/09/03 02:40:11;;;;;;;7.55;6.90;;;17.50;78.70;;;;;;5069490;28;20557;-61
2022/09/03 02:42:39;;;;;;;6.13;5.60;;;17.50;78.70;;;;;;5068377;28;20243;-61
2022/09/03 02:45:16;;;;;;;5.27;4.30;;;17.60;79.30;;;;;;5068343;28;20477;-61
2022/09/03 02:47:45;;;;;;;8.37;5.57;;;17.50;79.60;;;;;;5068947;28;20963;-60
2022/09/03 02:50:13;;;;;;;5.63;5.03;;;17.50;79.10;;;;;;5070597;28;20482;-61
2022/09/03 02:52:40;;;;;;;6.23;5.63;;;17.40;80.40;;;;;;5071701;28;20486;-61
2022/09/03 02:55:07;;;;;;;6.90;6.20;;;17.10;81.40;;;;;;5070177;28;20482;-61
2022/09/03 02:57:34;;;;;;;6.07;5.33;;;17.10;80.10;;;;;;5074124;28;20844;-61
2022/09/03 03:00:01;;;;;;;9.00;7.47;;;17.20;79.80;;;;;;5072284;28;20478;-61
2022/09/03 03:02:27;;;;;;;7.37;6.73;;;17.10;81.10;;;;;;5078528;28;20489;-61
2022/09/03 03:04:54;;;;;;;5.10;4.57;;;17.10;80.60;;;;;;5072975;28;20489;-61
2022/09/03 03:07:22;;;;;;;6.07;5.57;;;17.20;80.00;;;;;;5075206;28;20706;-61
2022/09/03 03:09:49;;;;;;;6.37;4.67;;;17.30;80.40;;;;;;5073367;28;20728;-62
2022/09/03 03:12:18;;;;;;;5.65;4.85;;;17.20;80.30;;;;;;5080463;28;20482;-62
2022/09/03 03:14:44;;;;;;;5.50;5.00;;;17.30;80.70;;;;;;5060133;28;20617;-62
2022/09/03 03:17:11;;;;;;;7.83;6.10;;;17.20;82.60;;;;;;5066433;28;20243;-60
2022/09/03 03:19:38;;;;;;;8.00;5.40;;;17.10;81.60;;;;;;5072186;28;20496;-60
2022/09/03 03:22:04;;;;;;;8.33;7.00;;;17.10;82.50;;;;;;5089992;28;20485;-61
2022/09/03 03:24:32;;;;;;;6.25;5.45;;;18.60;84.00;;;;;;5077453;28;20481;-61
2022/09/03 03:26:59;;;;;;;9.33;5.93;;;17.10;82.50;;;;;;5071898;28;20245;-60
2022/09/03 03:29:26;;;;;;;6.73;6.13;;;17.00;80.90;;;;;;5074481;28;20486;-60
2022/09/03 03:31:53;;;;;;;9.50;5.50;;;17.00;82.10;;;;;;5073028;28;20474;-60
2022/09/03 03:34:20;;;;;;;4.97;4.50;;;17.00;83.30;;;;;;5072370;28;20482;-60
2022/09/03 03:36:46;;;;;;;5.47;4.97;;;17.00;83.80;;;;;;5073828;28;20361;-61
2022/09/03 03:39:13;;;;;;;9.07;5.53;;;17.30;85.00;;;;;;5075225;28;20760;-60
2022/09/03 03:41:41;;;;;;;6.37;5.80;;;17.30;85.50;;;;;;5074773;28;21086;-61
2022/09/03 03:44:09;;;;;;;8.80;7.30;;;17.40;86.10;;;;;;5077914;28;20528;-61
2022/09/03 03:46:37;;;;;;;6.93;6.32;;;17.50;85.90;;;;;;5073858;28;20825;-61
2022/09/03 03:49:05;;;;;;;6.73;6.17;;;17.60;86.80;;;;;;5079842;28;20728;-61
2022/09/03 03:51:32;;;;;;;7.53;5.93;;;17.60;86.40;;;;;;5074182;28;20675;-62
2022/09/03 03:53:59;;;;;;;10.20;9.00;;;17.60;86.50;;;;;;5071276;28;21230;-61
2022/09/03 03:56:27;;;;;;;6.13;5.13;;;17.60;86.40;;;;;;5073089;28;21399;-62
2022/09/03 03:58:56;;;;;;;7.47;5.97;;;17.60;87.20;;;;;;5072945;28;20489;-61
2022/09/03 04:01:24;;;;;;;5.70;5.20;;;17.60;88.50;;;;;;5071906;28;21003;-62
2022/09/03 04:03:51;;;;;;;6.20;5.67;;;17.40;90.00;;;;;;5068086;28;20639;-62
2022/09/03 04:06:19;;;;;;;8.77;6.70;;;17.30;90.40;;;;;;5074203;28;20475;-63
2022/09/03 04:08:48;;;;;;;7.67;6.07;;;17.10;91.00;;;;;;5072956;28;20979;-61
2022/09/03 04:11:16;;;;;;;5.40;4.87;;;16.80;91.50;;;;;;5072434;28;20497;-64
2022/09/03 04:13:45;;;;;;;9.00;7.20;;;16.40;93.00;;;;;;5070131;28;20479;-63
2022/09/03 04:16:17;;;;;;;7.93;7.10;;;16.30;93.40;;;;;;5072601;28;20483;-61
2022/09/03 04:18:44;;;;;;;7.27;6.37;;;16.20;93.80;;;;;;5067633;28;20536;-63
2022/09/03 04:21:12;;;;;;;12.13;8.83;;;16.00;93.80;;;;;;5072886;28;20486;-63
2022/09/03 04:23:41;;;;;;;7.40;6.00;;;16.00;94.60;;;;;;5070671;28;21019;-62
2022/09/03 04:26:09;;;;;;;9.00;8.10;;;16.00;94.60;;;;;;5065490;28;20808;-63
2022/09/03 04:28:35;;;;;;;14.67;9.23;;;16.20;94.50;;;;;;5070166;28;20502;-62
2022/09/03 04:31:07;;;;;;;8.10;7.03;;;16.20;94.90;;;;;;5073279;28;20478;-63
2022/09/03 04:33:36;;;;;;;13.27;8.97;;;16.10;96.10;;;;;;5069819;28;20485;-62
2022/09/03 04:36:08;;;;;;;13.93;11.40;;;16.00;97.10;;;;;;5073033;28;20478;-62
2022/09/03 04:38:37;;;;;;;10.20;8.15;;;15.90;98.00;;;;;;5071960;28;20248;-65
2022/09/03 04:41:04;;;;;;;15.40;10.20;;;15.90;98.20;;;;;;5072608;28;20236;-63
2022/09/03 04:43:31;;;;;;;9.47;8.37;;;16.20;98.30;;;;;;5069925;28;20486;-61
2022/09/03 04:45:59;;;;;;;15.07;10.67;;;16.30;99.90;;;;;;5072202;28;20857;-62
2022/09/03 04:48:26;;;;;;;15.33;9.03;;;16.30;99.90;;;;;;5071303;28;21042;-62
2022/09/03 04:50:55;;;;;;;9.50;7.03;;;16.50;99.90;;;;;;5073788;28;21586;-61
2022/09/03 04:53:22;;;;;;;11.40;8.90;;;16.70;99.90;;;;;;5067955;28;20496;-61
2022/09/03 04:55:49;;;;;;;7.55;6.75;;;16.90;99.90;;;;;;5073957;28;20477;-64
2022/09/03 04:58:16;;;;;;;9.37;6.63;;;17.10;99.90;;;;;;5075250;28;20232;-61
2022/09/03 05:00:43;;;;;;;11.13;8.27;;;17.40;99.90;;;;;;5072446;28;20917;-62
2022/09/03 05:03:10;;;;;;;9.97;8.27;;;17.40;99.90;;;;;;5071174;28;20983;-60
2022/09/03 05:05:36;;;;;;;18.05;8.45;;;17.70;99.90;;;;;;5068206;28;20482;-63
2022/09/03 05:08:05;;;;;;;10.33;8.63;;;17.70;99.90;;;;;;5073236;28;20521;-62
2022/09/03 05:10:32;;;;;;;9.30;7.43;;;17.80;99.90;;;;;;5067879;28;20509;-64
2022/09/03 05:13:00;;;;;;;13.80;9.17;;;17.80;99.90;;;;;;5073107;28;20488;-61
2022/09/03 05:15:27;;;;;;;9.07;6.97;;;17.80;99.90;;;;;;5070536;28;20486;-61
2022/09/03 05:17:58;;;;;;;9.27;7.03;;;17.90;99.90;;;;;;5070397;28;20522;-62
2022/09/03 05:20:25;;;;;;;9.87;5.77;;;17.90;99.90;;;;;;5066188;28;20605;-63
2022/09/03 05:22:51;;;;;;;8.53;6.67;;;17.90;99.90;;;;;;5066498;28;20495;-62
2022/09/03 05:25:20;;;;;;;13.43;8.97;;;17.90;99.90;;;;;;5069930;28;20759;-62
2022/09/03 05:27:46;;;;;;;9.80;6.93;;;17.90;99.90;;;;;;5059856;28;21016;-59
2022/09/03 05:30:14;;;;;;;8.57;7.67;;;17.80;99.90;;;;;;5076069;28;20475;-62
2022/09/03 05:32:40;;;;;;;10.67;9.03;;;17.90;99.90;;;;;;5072498;28;20518;-61
2022/09/03 05:35:09;;;;;;;9.87;7.57;;;17.90;99.90;;;;;;5069975;28;20582;-62
2022/09/03 05:37:36;;;;;;;10.00;8.57;;;18.00;99.90;;;;;;5071985;28;20865;-63
2022/09/03 05:40:04;;;;;;;11.53;9.83;;;18.00;99.90;;;;;;5072615;28;20474;-63
2022/09/03 05:42:37;;;;;;;12.53;7.80;;;18.00;99.90;;;;;;5070709;28;20483;-63
2022/09/03 05:45:08;;;;;;;12.50;9.30;;;18.10;99.90;;;;;;5068541;28;20642;-63
2022/09/03 05:47:35;;;;;;;10.73;8.10;;;18.10;99.90;;;;;;5071368;28;20835;-63
2022/09/03 05:50:02;;;;;;;14.37;9.70;;;18.10;99.90;;;;;;5070730;28;20475;-63
2022/09/03 05:52:28;;;;;;;10.90;7.23;;;18.10;99.90;;;;;;5072006;28;20995;-62
2022/09/03 05:54:55;;;;;;;10.37;7.80;;;18.10;99.90;;;;;;5068336;28;20902;-63
2022/09/03 05:57:22;;;;;;;9.10;6.73;;;18.30;99.90;;;;;;5071786;28;21272;-62
2022/09/03 05:59:50;;;;;;;10.43;6.23;;;18.30;99.90;;;;;;5072319;28;20544;-61
2022/09/03 06:02:18;;;;;;;8.10;6.57;;;18.40;99.90;;;;;;5059710;28;20474;-60
2022/09/03 06:04:45;;;;;;;9.15;6.82;;;18.30;99.90;;;;;;5071022;28;20510;-62
2022/09/03 06:07:11;;;;;;;7.47;6.77;;;18.40;99.90;;;;;;5070551;28;20251;-63
2022/09/03 06:09:38;;;;;;;9.23;6.30;;;18.40;99.90;;;;;;5070452;28;20470;-62
2022/09/03 06:12:05;;;;;;;9.50;7.33;;;18.30;99.90;;;;;;5071395;28;21203;-64
2022/09/03 06:14:31;;;;;;;10.45;8.27;;;18.30;99.90;;;;;;5066777;28;20485;-65
2022/09/03 06:16:59;;;;;;;8.57;7.05;;;18.30;99.90;;;;;;5071265;28;21307;-62
2022/09/03 06:19:26;;;;;;;8.23;6.80;;;18.40;99.90;;;;;;5073324;28;20236;-62
2022/09/03 06:21:54;;;;;;;9.73;7.30;;;18.60;99.90;;;;;;5071600;28;20833;-64
2022/09/03 06:24:23;;;;;;;11.52;6.63;;;18.50;99.90;;;;;;5070689;28;20598;-64
2022/09/03 06:26:50;;;;;;;10.30;6.70;;;18.50;99.90;;;;;;5071832;28;20271;-64
2022/09/03 06:29:17;;;;;;;8.47;7.57;;;18.40;99.90;;;;;;5057530;28;21183;-62
2022/09/03 06:31:44;;;;;;;9.53;7.80;;;18.40;99.90;;;;;;5068267;28;20540;-63
2022/09/03 06:34:12;;;;;;;9.73;7.90;;;18.30;99.90;;;;;;5066759;28;20978;-64
2022/09/03 06:36:40;;;;;;;10.40;6.67;;;18.20;99.90;;;;;;5072793;28;21199;-61
2022/09/03 06:39:06;;;;;;;9.90;8.00;;;18.00;99.90;;;;;;5072421;28;20496;-63
2022/09/03 06:41:34;;;;;;;8.10;6.67;;;17.90;99.90;;;;;;5071999;28;20486;-63
2022/09/03 06:44:02;;;;;;;10.27;8.87;;;17.90;99.90;;;;;;5069755;28;20493;-63
2022/09/03 06:46:30;;;;;;;6.75;6.05;;;17.90;99.90;;;;;;5070797;28;20514;-63
2022/09/03 06:48:57;;;;;;;12.10;6.28;;;18.00;99.90;;;;;;5069117;28;20239;-62
2022/09/03 06:51:27;;;;;;;7.38;5.97;;;18.00;99.90;;;;;;5067646;28;20239;-65
2022/09/03 06:53:59;;;;;;;7.33;5.80;;;18.10;99.90;;;;;;5067582;28;20260;-64
2022/09/03 06:56:26;;;;;;;6.33;5.73;;;18.10;99.90;;;;;;5062342;28;20470;-62
2022/09/03 06:58:54;;;;;;;7.00;4.80;;;18.10;99.90;;;;;;5067620;28;20471;-65
2022/09/03 07:01:24;;;;;;;5.57;5.00;;;18.00;99.90;;;;;;5062316;28;20232;-64
2022/09/03 07:03:55;;;;;;;5.47;4.90;;;18.10;99.90;;;;;;5063992;28;20763;-65
2022/09/03 07:06:23;;;;;;;6.82;6.05;;;18.10;99.90;;;;;;5066011;28;20593;-63
2022/09/03 07:08:51;;;;;;;4.90;4.50;;;18.20;99.90;;;;;;5070277;28;20331;-65
2022/09/03 07:11:22;;;;;;;4.90;4.40;;;18.20;99.90;;;;;;5065109;28;20481;-64
2022/09/03 07:13:50;;;;;;;6.63;4.63;;;18.30;99.90;;;;;;5065339;28;21141;-63
2022/09/03 07:16:19;;;;;;;6.72;5.82;;;18.40;99.90;;;;;;5069643;28;20565;-63
2022/09/03 07:18:46;;;;;;;4.40;3.87;;;18.40;99.90;;;;;;5072043;28;20240;-64
2022/09/03 07:21:15;;;;;;;4.77;4.33;;;18.40;99.90;;;;;;5067119;28;20504;-64
2022/09/03 07:23:42;;;;;;;5.83;4.73;;;18.60;99.90;;;;;;5076041;28;21458;-66
2022/09/03 07:26:13;;;;;;;5.97;5.33;;;18.60;99.90;;;;;;5064717;28;20466;-65
2022/09/03 07:28:41;;;;;;;4.83;4.03;;;18.60;99.90;;;;;;5054236;28;20495;-64
2022/09/03 07:31:11;;;;;;;7.30;6.07;;;18.70;99.90;;;;;;5053909;28;20643;-63
2022/09/03 07:33:39;;;;;;;10.87;5.23;;;18.90;99.90;;;;;;5049869;28;20635;-66
2022/09/03 07:36:08;;;;;;;6.27;5.77;;;19.10;99.90;;;;;;5050947;28;20479;-63
2022/09/03 07:38:35;;;;;;;5.33;4.80;;;19.10;99.90;;;;;;5050305;28;20509;-66
2022/09/03 07:41:04;;;;;;;6.07;5.57;;;19.20;99.90;;;;;;5050575;28;20758;-64
2022/09/03 07:43:36;;;;;;;5.67;4.53;;;19.30;99.90;;;;;;5049802;28;21039;-67
2022/09/03 07:46:03;;;;;;;6.33;5.83;;;19.30;99.90;;;;;;5049032;28;20570;-66
2022/09/03 07:48:30;;;;;;;3.93;3.60;;;19.40;99.90;;;;;;5054960;28;20478;-68
2022/09/03 07:50:59;;;;;;;9.20;5.93;;;19.40;99.90;;;;;;5051116;28;20483;-65
2022/09/03 07:53:27;;;;;;;7.50;5.70;;;19.50;99.90;;;;;;5052835;28;20369;-63
2022/09/03 07:55:55;;;;;;;6.90;5.30;;;19.50;99.90;;;;;;5054165;28;20486;-65
2022/09/03 07:58:23;;;;;;;4.63;4.23;;;19.40;99.90;;;;;;5044989;28;20859;-66
2022/09/03 08:00:51;;;;;;;4.03;3.70;;;19.50;99.90;;;;;;5064639;28;20826;-65
2022/09/03 08:03:18;;;;;;;6.47;5.87;;;19.60;99.90;;;;;;5051701;28;20545;-64
2022/09/03 08:05:45;;;;;;;10.40;5.40;;;19.60;99.90;;;;;;5046894;28;21053;-64
2022/09/03 08:08:13;;;;;;;5.50;4.33;;;19.50;99.90;;;;;;5043731;28;20975;-63
2022/09/03 08:10:40;;;;;;;7.83;6.90;;;19.50;99.90;;;;;;5051247;28;21046;-63
2022/09/03 08:13:07;;;;;;;7.37;6.67;;;19.50;99.90;;;;;;5048166;28;21071;-64
2022/09/03 08:15:35;;;;;;;6.77;6.17;;;19.60;99.90;;;;;;5049531;28;20532;-63
2022/09/03 08:18:03;;;;;;;13.20;7.30;;;19.70;99.90;;;;;;5055498;28;20710;-60
2022/09/03 08:20:31;;;;;;;6.20;5.70;;;19.60;99.90;;;;;;5052242;28;20237;-64
2022/09/03 08:23:02;;;;;;;6.97;6.37;;;19.60;99.90;;;;;;5050491;28;20479;-61
2022/09/03 08:25:29;;;;;;;7.70;5.67;;;19.50;99.90;;;;;;5051655;28;20701;-64
2022/09/03 08:27:58;;;;;;;6.83;6.13;;;19.40;99.90;;;;;;5053060;28;20490;-65
2022/09/03 08:30:26;;;;;;;5.53;5.00;;;19.40;99.90;;;;;;5045185;28;20471;-61
2022/09/03 08:32:53;;;;;;;5.07;4.67;;;19.30;99.90;;;;;;5053740;28;20483;-62
2022/09/03 08:35:21;;;;;;;6.70;6.00;;;19.30;99.90;;;;;;5039579;28;21010;-62
2022/09/03 08:37:50;;;;;;;6.00;5.30;;;19.30;99.90;;;;;;5051287;28;21062;-64
2022/09/03 08:40:17;;;;;;;5.87;5.30;;;19.30;99.90;;;;;;5052301;28;20471;-61
2022/09/03 08:42:56;;;;;;;5.93;4.67;;;19.40;99.90;;;;;;5054066;28;20475;-61
2022/09/03 08:45:23;;;;;;;6.43;5.00;;;;;;;;;;5051749;28;20742;-63
2022/09/03 08:47:56;;;;;;;6.30;4.93;;;19.40;99.90;;;;;;5043289;28;20491;-63
2022/09/03 08:50:26;;;;;;;4.60;3.90;;;19.40;99.90;;;;;;5041437;28;21110;-61
2022/09/03 08:52:58;;;;;;;5.40;4.90;;;19.30;99.90;;;;;;5051453;28;20514;-63
2022/09/03 08:55:27;;;;;;;4.57;4.17;;;19.30;99.90;;;;;;5036728;28;20471;-63
2022/09/03 08:58:01;;;;;;;5.10;4.70;;;19.40;99.90;;;;;;5052226;28;20749;-62
2022/09/03 09:00:39;;;;;;;4.93;4.53;;;19.40;99.90;;;;;;5038774;28;20724;-62
2022/09/03 09:03:24;;;;;;;3.93;3.63;;;19.50;99.90;;;;;;5051737;28;20482;-64
2022/09/03 09:05:57;;;;;;;4.40;3.93;;;19.60;99.90;;;;;;5051695;28;20479;-62
2022/09/03 09:08:32;;;;;;;4.97;4.50;;;19.70;99.90;;;;;;5049805;28;20474;-65
2022/09/03 09:11:07;;;;;;;6.97;6.37;;;19.70;99.90;;;;;;5043453;28;20475;-63
2022/09/03 09:13:42;;;;;;;6.30;5.70;;;19.80;99.90;;;;;;5047260;28;20743;-63
2022/09/03 09:16:16;;;;;;;6.00;5.40;;;19.80;99.90;;;;;;5050906;28;20484;-65
2022/09/03 09:18:57;;;;;;;4.45;4.05;;;19.80;99.90;;;;;;5049299;28;20988;-62
2022/09/03 09:21:29;;;;;;;4.50;4.10;;;19.80;99.90;;;;;;5053363;28;20637;-64
2022/09/03 09:24:02;;;;;;;4.20;3.90;;;19.80;99.90;;;;;;5038233;28;20698;-65
2022/09/03 09:26:29;;;;;;;4.87;4.47;;;19.70;99.90;;;;;;5040387;28;20983;-62
2022/09/03 09:29:01;;;;;;;4.60;4.30;;;19.70;99.90;;;;;;5052752;28;20505;-63
2022/09/03 09:31:29;;;;;;;4.23;3.93;;;20.00;99.90;;;;;;5039876;28;20816;-61
2022/09/03 09:34:00;;;;;;;5.13;4.70;;;20.30;99.90;;;;;;5047042;28;21039;-65
2022/09/03 09:36:28;;;;;;;4.33;4.00;;;20.30;99.90;;;;;;5051980;28;20882;-63
2022/09/03 09:38:55;;;;;;;5.37;4.93;;;20.40;99.90;;;;;;5048682;28;20687;-66
2022/09/03 09:41:23;;;;;;;3.67;3.37;;;20.40;99.90;;;;;;5059259;28;21283;-63
2022/09/03 09:44:00;;;;;;;3.87;3.57;;;20.50;99.90;;;;;;5049256;28;20483;-65
2022/09/03 09:46:34;;;;;;;8.33;4.57;;;20.50;99.90;;;;;;5036586;28;21168;-64
2022/09/03 09:49:01;;;;;;;5.50;5.00;;;20.50;99.90;;;;;;5052399;28;20486;-67
2022/09/03 09:51:31;;;;;;;5.10;4.57;;;20.50;99.90;;;;;;5057198;28;20496;-65
2022/09/03 09:54:02;;;;;;;5.95;5.45;;;20.50;99.90;;;;;;5044998;28;20463;-64
2022/09/03 09:56:28;;;;;;;6.60;4.47;;;20.40;99.90;;;;;;5047860;28;21104;-67
2022/09/03 09:59:03;;;;;;;5.17;4.77;;;20.40;99.90;;;;;;5059586;28;20487;-60
2022/09/03 10:01:30;;;;;;;5.03;4.43;;;20.40;99.90;;;;;;5053242;28;20486;-68
2022/09/03 10:03:59;;;;;;;5.53;5.10;;;20.30;99.90;;;;;;5046959;28;20549;-66
2022/09/03 10:09:15;;;;;;;5.90;5.40;;;20.40;99.90;;;;;;5049148;28;20529;-67
2022/09/03 10:11:46;;;;;;;5.17;4.77;;;20.40;99.90;;;;;;5032481;28;20959;-64
2022/09/03 10:14:21;;;;;;;5.47;4.83;;;20.40;99.90;;;;;;5049573;28;21044;-66
2022/09/03 10:17:03;;;;;;;4.25;3.85;;;20.50;99.90;;;;;;5046046;28;20482;-64
2022/09/03 10:19:40;;;;;;;4.60;3.80;;;20.50;99.90;;;;;;5047192;28;20396;-65
2022/09/03 10:22:16;;;;;;;6.90;6.30;;;20.90;99.90;;;;;;5053184;28;20482;-63
2022/09/03 10:24:52;;;;;;;9.87;8.37;;;20.90;99.90;;;;;;5021560;28;20235;-62
2022/09/03 10:27:22;;;;;;;4.57;4.17;;;21.20;99.90;;;;;;5037295;28;20491;-62
2022/09/03 10:29:49;;;;;;;4.57;4.17;;;21.40;99.90;;;;;;5039798;28;20483;-64
2022/09/03 10:32:25;;;;;;;3.47;3.17;;;21.60;99.90;;;;;;5028967;28;20572;-65
2022/09/03 10:35:00;;;;;;;5.17;4.70;;;21.50;99.90;;;;;;5021768;28;20485;-63
2022/09/03 10:37:37;;;;;;;4.10;3.70;;;21.70;99.90;;;;;;5021760;28;20499;-64
2022/09/03 10:40:29;;;;;;;6.83;6.23;;;21.50;99.90;;;;;;5035225;28;20861;-63
2022/09/03 10:43:08;;;;;;;5.73;5.27;;;21.60;99.30;;;;;;5042945;28;20499;-67
2022/09/03 10:45:41;;;;;;;5.67;5.00;;;21.70;99.30;;;;;;5041513;28;21049;-63
2022/09/03 10:48:20;;;;;;;5.37;4.87;;;21.80;99.80;;;;;;5051457;28;20475;-64
2022/09/03 10:50:52;;;;;;;3.97;3.67;;;22.00;99.20;;;;;;5028460;28;20952;-62
2022/09/03 10:53:30;;;;;;;4.67;4.37;;;22.00;99.40;;;;;;5043335;28;21083;-63
2022/09/03 10:56:02;;;;;;;6.97;6.37;;;22.10;99.60;;;;;;5051755;28;20562;-64
2022/09/03 10:58:44;;;;;;;5.00;4.60;;;22.40;99.60;;;;;;5042244;28;20503;-64
2022/09/03 11:01:23;;;;;;;4.97;4.53;;;22.50;98.10;;;;;;5049018;28;20486;-65
2022/09/03 11:03:56;;;;;;;5.50;4.50;;;22.60;97.40;;;;;;5038599;28;20486;-64
2022/09/03 11:06:26;;;;;;;5.00;4.57;;;22.60;97.60;;;;;;5051424;28;20526;-63
2022/09/03 11:08:58;;;;;;;4.83;4.43;;;22.70;97.00;;;;;;5037125;28;20494;-63
2022/09/03 11:11:31;;;;;;;5.47;5.07;;;22.90;95.70;;;;;;5052985;28;21162;-63
2022/09/03 11:14:04;;;;;;;6.57;5.97;;;22.90;96.00;;;;;;5045103;28;20747;-64
2022/09/03 11:16:35;;;;;;;5.63;5.23;;;22.90;96.20;;;;;;5050004;28;20499;-63
2022/09/03 11:19:05;;;;;;;6.93;6.33;;;23.00;97.30;;;;;;5045734;28;20485;-63
2022/09/03 11:21:34;;;;;;;5.23;4.73;;;22.90;96.20;;;;;;5054398;28;21020;-67
2022/09/03 11:24:07;;;;;;;5.97;5.57;;;22.90;97.20;;;;;;5052346;28;20487;-66
2022/09/03 11:26:38;;;;;;;7.00;5.90;;;22.90;96.30;;;;;;5053658;28;20902;-64
2022/09/03 11:29:09;;;;;;;5.80;5.33;;;23.00;96.10;;;;;;5054519;28;20811;-66
2022/09/03 11:31:49;;;;;;;5.60;5.10;;;23.10;96.60;;;;;;5053884;28;20483;-65
2022/09/03 11:34:28;;;;;;;5.60;4.47;;;23.10;96.20;;;;;;5041266;28;20476;-65
2022/09/03 11:37:05;;;;;;;4.57;4.17;;;23.10;96.00;;;;;;5053064;28;20796;-66
2022/09/03 11:39:36;;;;;;;7.40;4.67;;;23.20;95.30;;;;;;5052817;28;20518;-63
2022/09/03 11:42:12;;;;;;;6.60;6.10;;;23.20;95.20;;;;;;5041311;28;20472;-65
2022/09/03 11:44:41;;;;;;;5.33;4.83;;;23.40;95.80;;;;;;5045074;28;20477;-62
2022/09/03 11:47:16;;;;;;;7.33;6.73;;;23.40;94.90;;;;;;5048496;28;20666;-64
2022/09/03 11:49:49;;;;;;;5.77;5.27;;;23.40;95.30;;;;;;5051762;28;21201;-65
2022/09/03 11:52:26;;;;;;;6.27;5.10;;;23.30;95.50;;;;;;5053788;28;20569;-64
2022/09/03 11:54:53;;;;;;;5.83;4.87;;;23.10;95.30;;;;;;5038983;28;21119;-61
2022/09/03 11:57:26;;;;;;;5.23;4.83;;;23.10;95.00;;;;;;5052374;28;20703;-64
2022/09/03 11:59:54;;;;;;;6.13;5.30;;;23.10;95.00;;;;;;5046013;28;21147;-63
2022/09/03 12:02:27;;;;;;;5.40;5.00;;;23.50;94.30;;;;;;5054111;28;20475;-64
2022/09/03 12:05:11;;;;;;;5.93;5.37;;;23.60;95.30;;;;;;5040680;28;20488;-65
2022/09/03 12:08:02;;;;;;;5.73;5.23;;;23.60;94.50;;;;;;5050967;28;20507;-63
2022/09/03 12:10:39;;;;;;;5.77;5.30;;;23.50;94.20;;;;;;5033082;28;20801;-65
2022/09/03 12:13:26;;;;;;;5.27;4.77;;;23.70;95.00;;;;;;5045444;28;21016;-67
2022/09/03 12:16:10;;;;;;;5.20;4.80;;;23.70;94.70;;;;;;5049111;28;20473;-68
2022/09/03 12:18:40;;;;;;;6.60;5.00;;;23.70;94.70;;;;;;5055046;28;20479;-64
2022/09/03 12:21:09;;;;;;;8.27;7.57;;;23.70;94.40;;;;;;5056547;28;20857;-65
2022/09/03 12:23:42;;;;;;;6.37;5.87;;;23.70;94.60;;;;;;5054102;28;21004;-66
2022/09/03 12:26:13;;;;;;;7.20;6.60;;;23.70;94.30;;;;;;5056946;28;20533;-67
2022/09/03 12:28:43;;;;;;;10.30;9.10;;;23.70;95.90;;;;;;5055956;28;20781;-65
2022/09/03 12:31:20;;;;;;;9.87;8.93;;;23.90;95.40;;;;;;5055549;28;20480;-64
2022/09/03 12:33:52;;;;;;;6.67;6.07;;;23.90;94.80;;;;;;5051310;28;21028;-66
2022/09/03 12:36:21;;;;;;;7.30;6.40;;;24.00;94.20;;;;;;5055034;28;20489;-66
2022/09/03 12:38:48;;;;;;;8.93;6.37;;;24.00;93.60;;;;;;5056108;28;20969;-66
2022/09/03 12:41:23;;;;;;;9.53;7.40;;;23.90;92.80;;;;;;5053241;28;20473;-65
2022/09/03 12:43:54;;;;;;;7.83;6.60;;;24.20;93.90;;;;;;5043879;28;21018;-65
2022/09/03 12:46:24;;;;;;;8.17;7.20;;;20.60;90.80;;;;;;5021074;28;20483;-67
2022/09/03 12:48:56;;;;;;;5.30;4.80;;;24.30;92.50;;;;;;5041868;28;20564;-65
2022/09/03 12:51:23;;;;;;;8.43;5.70;;;24.70;92.90;;;;;;5028535;28;20466;-63
2022/09/03 12:53:52;;;;;;;6.27;5.67;;;24.70;92.40;;;;;;5036120;28;20493;-61
2022/09/03 12:56:20;;;;;;;6.20;5.13;;;24.50;91.40;;;;;;5047075;28;21194;-65
2022/09/03 12:58:57;;;;;;;6.30;5.70;;;24.30;91.30;;;;;;5048583;28;20471;-70
2022/09/03 13:01:30;;;;;;;8.80;5.47;;;24.10;92.10;;;;;;5030731;28;20489;-60
2022/09/03 13:04:03;;;;;;;8.17;6.87;;;23.90;92.90;;;;;;5030897;28;20475;-64
2022/09/03 13:06:45;;;;;;;10.80;7.20;;;23.80;93.70;;;;;;5044356;28;20483;-62
2022/09/03 13:09:14;;;;;;;9.40;7.47;;;23.60;93.20;;;;;;5038149;28;20470;-61